sensor_id;sensor_type;location;lat;lon;timestamp;temperature;humidity
17333;DHT22;8784;50.94667800;7.08448400;2024-02-26T00:00:18;9.60;99.30
17333;DHT22;8784;50.94667800;7.08448400;2024-02-26T00:02:49;9.60;99.50
17333;DHT22;8784;50.94667800;7.08448400;2024-02-26T00:05:16;9.60;99.70
17333;DHT22;8784;50.94667800;7.08448400;2024-02-26T00:07:43;9.50;99.90
17333;DHT22;8784;50.94667800;7.08448400;2024-02-26T00:10:10;9.50;99.90
17333;DHT22;8784;50.94667800;7.08448400;2024-02-26T00:12:37;9.50;99.90
17333;DHT22;8784;50.94667800;7.08448400;2024-02-26T00:15:05;9.50;99.80
17333;DHT22;8784;50.94667800;7.08448400;2024-02-26T00:17:32;9.50;99.90
17333;DHT22;8784;50.94667800;7.08448400;2024-02-26T00:20:01;9.40;99.80
17333;DHT22;8784;50.94667800;7.08448400;2024-02-26T00:22:30;9.10;99.80
17333;DHT22;8784;50.94667800;7.08448400;2024-02-26T00:24:56;9.00;99.90
17333;DHT22;8784;50.94667800;7.08448400;2024-02-26T00:27:23;8.80;99.90
17333;DHT22;8784;50.94667800;7.08448400;2024-02-26T00:29:50;8.70;99.90
17333;DHT22;8784;50.94667800;7.08448400;2024-02-26T00:32:17;8.50;99.90
17333;DHT22;8784;50.94667800;7.08448400;2024-02-26T00:34:44;8.40;99.90
17333;DHT22;8784;50.94667800;7.08448400;2024-02-26T00:37:12;8.30;99.90
17333;DHT22;8784;50.94667800;7.08448400;2024-02-26T00:39:39;8.10;99.90
17333;DHT22;8784;50.94667800;7.08448400;2024-02-26T00:42:06;8.00;99.90
17333;DHT22;8784;50.94667800;7.08448400;2024-02-26T00:44:33;8.00;99.90
17333;DHT22;8784;50.94667800;7.08448400;2024-02-26T00:47:00;7.90;99.90
17333;DHT22;8784;50.94667800;7.08448400;2024-02-26T00:49:27;7.80;99.90
17333;DHT22;8784;50.94667800;7.08448400;2024-02-26T00:51:54;7.80;99.90
17333;DHT22;8784;50.94667800;7.08448400;2024-02-26T00:54:22;7.80;99.90
17333;DHT22;8784;50.94667800;7.08448400;2024-02-26T00:56:49;7.80;99.90
17333;DHT22;8784;50.94667800;7.08448400;2024-02-26T00:59:16;7.80;99.90
17333;DHT22;8784;50.94667800;7.08448400;2024-02-26T01:01:43;7.80;99.90
17333;DHT22;8784;50.94667800;7.08448400;2024-02-26T01:04:10;7.90;99.90
17333;DHT22;8784;50.94667800;7.08448400;2024-02-26T01:06:37;8.00;99.90
17333;DHT22;8784;50.94667800;7.08448400;2024-02-26T01:09:04;8.00;99.90
17333;DHT22;8784;50.94667800;7.08448400;2024-02-26T01:11:32;8.00;99.90
17333;DHT22;8784;50.94667800;7.08448400;2024-02-26T01:13:59;7.90;99.90
17333;DHT22;8784;50.94667800;7.08448400;2024-02-26T01:16:26;7.80;99.90
17333;DHT22;8784;50.94667800;7.08448400;2024-02-26T01:18:54;7.70;99.90
17333;DHT22;8784;50.94667800;7.08448400;2024-02-26T01:21:21;7.60;99.90
17333;DHT22;8784;50.94667800;7.08448400;2024-02-26T01:23:48;7.50;99.90
17333;DHT22;8784;50.94667800;7.08448400;2024-02-26T01:26:15;7.50;99.90
17333;DHT22;8784;50.94667800;7.08448400;2024-02-26T01:28:43;7.40;99.90
17333;DHT22;8784;50.94667800;7.08448400;2024-02-26T01:31:10;7.40;99.90
17333;DHT22;8784;50.94667800;7.08448400;2024-02-26T01:33:37;7.40;99.90
17333;DHT22;8784;50.94667800;7.08448400;2024-02-26T01:36:04;7.40;99.90
17333;DHT22;8784;50.94667800;7.08448400;2024-02-26T01:38:31;7.30;99.90
17333;DHT22;8784;50.94667800;7.08448400;2024-02-26T01:40:58;7.30;99.90
17333;DHT22;8784;50.94667800;7.08448400;2024-02-26T01:43:25;7.20;99.90
17333;DHT22;8784;50.94667800;7.08448400;2024-02-26T01:45:53;7.20;99.90
17333;DHT22;8784;50.94667800;7.08448400;2024-02-26T01:48:21;7.20;99.90
17333;DHT22;8784;50.94667800;7.08448400;2024-02-26T01:50:48;7.10;99.90
17333;DHT22;8784;50.94667800;7.08448400;2024-02-26T01:53:15;7.10;99.90
17333;DHT22;8784;50.94667800;7.08448400;2024-02-26T01:55:43;7.10;99.90
17333;DHT22;8784;50.94667800;7.08448400;2024-02-26T01:58:10;7.10;99.90
17333;DHT22;8784;50.94667800;7.08448400;2024-02-26T02:00:37;7.10;99.90
17333;DHT22;8784;50.94667800;7.08448400;2024-02-26T02:03:06;7.10;99.90
17333;DHT22;8784;50.94667800;7.08448400;2024-02-26T02:05:33;7.10;99.90
17333;DHT22;8784;50.94667800;7.08448400;2024-02-26T02:08:04;7.10;99.90
17333;DHT22;8784;50.94667800;7.08448400;2024-02-26T02:10:31;7.10;99.90
17333;DHT22;8784;50.94667800;7.08448400;2024-02-26T02:12:58;7.10;99.90
17333;DHT22;8784;50.94667800;7.08448400;2024-02-26T02:15:25;7.10;99.90
17333;DHT22;8784;50.94667800;7.08448400;2024-02-26T02:17:52;7.10;99.90
17333;DHT22;8784;50.94667800;7.08448400;2024-02-26T02:20:24;7.10;99.90
17333;DHT22;8784;50.94667800;7.08448400;2024-02-26T02:22:52;7.10;99.90
17333;DHT22;8784;50.94667800;7.08448400;2024-02-26T02:25:19;7.10;99.90
17333;DHT22;8784;50.94667800;7.08448400;2024-02-26T02:27:46;7.10;99.90
17333;DHT22;8784;50.94667800;7.08448400;2024-02-26T02:30:13;7.10;99.90
17333;DHT22;8784;50.94667800;7.08448400;2024-02-26T02:32:40;7.10;99.90
17333;DHT22;8784;50.94667800;7.08448400;2024-02-26T02:35:08;7.10;99.90
17333;DHT22;8784;50.94667800;7.08448400;2024-02-26T02:37:36;7.10;99.90
17333;DHT22;8784;50.94667800;7.08448400;2024-02-26T02:40:04;7.10;99.90
17333;DHT22;8784;50.94667800;7.08448400;2024-02-26T02:42:31;7.10;99.90
17333;DHT22;8784;50.94667800;7.08448400;2024-02-26T02:44:58;7.10;99.90
17333;DHT22;8784;50.94667800;7.08448400;2024-02-26T02:47:25;7.20;99.90
17333;DHT22;8784;50.94667800;7.08448400;2024-02-26T02:49:52;7.20;99.90
17333;DHT22;8784;50.94667800;7.08448400;2024-02-26T02:52:19;7.20;99.90
17333;DHT22;8784;50.94667800;7.08448400;2024-02-26T02:54:47;7.20;99.90
17333;DHT22;8784;50.94667800;7.08448400;2024-02-26T02:57:14;7.20;99.90
17333;DHT22;8784;50.94667800;7.08448400;2024-02-26T02:59:41;7.20;99.90
17333;DHT22;8784;50.94667800;7.08448400;2024-02-26T03:02:08;7.20;99.90
17333;DHT22;8784;50.94667800;7.08448400;2024-02-26T03:04:35;7.20;99.90
17333;DHT22;8784;50.94667800;7.08448400;2024-02-26T03:07:02;7.20;99.90
17333;DHT22;8784;50.94667800;7.08448400;2024-02-26T03:09:29;7.20;99.90
17333;DHT22;8784;50.94667800;7.08448400;2024-02-26T03:11:57;7.20;99.90
17333;DHT22;8784;50.94667800;7.08448400;2024-02-26T03:14:24;7.20;99.90
17333;DHT22;8784;50.94667800;7.08448400;2024-02-26T03:16:53;7.10;99.90
17333;DHT22;8784;50.94667800;7.08448400;2024-02-26T03:19:20;7.20;99.90
17333;DHT22;8784;50.94667800;7.08448400;2024-02-26T03:21:47;7.20;99.90
17333;DHT22;8784;50.94667800;7.08448400;2024-02-26T03:24:14;7.10;99.90
17333;DHT22;8784;50.94667800;7.08448400;2024-02-26T03:26:41;7.20;99.90
17333;DHT22;8784;50.94667800;7.08448400;2024-02-26T03:29:10;7.20;99.90
17333;DHT22;8784;50.94667800;7.08448400;2024-02-26T03:31:36;7.10;99.90
17333;DHT22;8784;50.94667800;7.08448400;2024-02-26T03:34:06;7.10;99.90
17333;DHT22;8784;50.94667800;7.08448400;2024-02-26T03:36:33;7.10;99.90
17333;DHT22;8784;50.94667800;7.08448400;2024-02-26T03:39:00;7.10;99.90
17333;DHT22;8784;50.94667800;7.08448400;2024-02-26T03:41:29;7.10;99.90
17333;DHT22;8784;50.94667800;7.08448400;2024-02-26T03:43:57;7.10;99.90
17333;DHT22;8784;50.94667800;7.08448400;2024-02-26T03:46:25;7.10;99.90
17333;DHT22;8784;50.94667800;7.08448400;2024-02-26T03:48:52;7.00;99.90
17333;DHT22;8784;50.94667800;7.08448400;2024-02-26T03:51:19;7.10;99.90
17333;DHT22;8784;50.94667800;7.08448400;2024-02-26T03:53:46;7.10;99.90
17333;DHT22;8784;50.94667800;7.08448400;2024-02-26T03:56:13;7.10;99.90
17333;DHT22;8784;50.94667800;7.08448400;2024-02-26T03:58:40;7.10;99.90
17333;DHT22;8784;50.94667800;7.08448400;2024-02-26T04:01:07;7.10;99.90
17333;DHT22;8784;50.94667800;7.08448400;2024-02-26T04:03:36;7.00;99.90
17333;DHT22;8784;50.94667800;7.08448400;2024-02-26T04:06:03;7.00;99.90
17333;DHT22;8784;50.94667800;7.08448400;2024-02-26T04:08:32;7.00;99.90
17333;DHT22;8784;50.94667800;7.08448400;2024-02-26T04:10:59;6.90;99.90
17333;DHT22;8784;50.94667800;7.08448400;2024-02-26T04:13:26;6.90;99.90
17333;DHT22;8784;50.94667800;7.08448400;2024-02-26T04:15:53;6.90;99.90
17333;DHT22;8784;50.94667800;7.08448400;2024-02-26T04:18:19;6.90;99.90
17333;DHT22;8784;50.94667800;7.08448400;2024-02-26T04:20:48;6.90;99.90
17333;DHT22;8784;50.94667800;7.08448400;2024-02-26T04:23:17;6.90;99.90
17333;DHT22;8784;50.94667800;7.08448400;2024-02-26T04:25:43;6.90;99.90
17333;DHT22;8784;50.94667800;7.08448400;2024-02-26T04:28:10;6.90;99.90
17333;DHT22;8784;50.94667800;7.08448400;2024-02-26T04:30:38;6.80;99.90
17333;DHT22;8784;50.94667800;7.08448400;2024-02-26T04:33:05;6.80;99.90
17333;DHT22;8784;50.94667800;7.08448400;2024-02-26T04:35:32;6.80;99.90
17333;DHT22;8784;50.94667800;7.08448400;2024-02-26T04:38:02;6.80;99.90
17333;DHT22;8784;50.94667800;7.08448400;2024-02-26T04:40:28;6.80;99.90
17333;DHT22;8784;50.94667800;7.08448400;2024-02-26T04:42:55;6.90;99.90
17333;DHT22;8784;50.94667800;7.08448400;2024-02-26T04:45:23;6.80;99.90
17333;DHT22;8784;50.94667800;7.08448400;2024-02-26T04:47:49;6.80;99.90
17333;DHT22;8784;50.94667800;7.08448400;2024-02-26T04:50:16;6.80;99.90
17333;DHT22;8784;50.94667800;7.08448400;2024-02-26T04:52:43;6.80;99.90
17333;DHT22;8784;50.94667800;7.08448400;2024-02-26T04:55:11;6.70;99.90
17333;DHT22;8784;50.94667800;7.08448400;2024-02-26T04:57:38;6.70;99.90
17333;DHT22;8784;50.94667800;7.08448400;2024-02-26T05:00:06;6.80;99.90
17333;DHT22;8784;50.94667800;7.08448400;2024-02-26T05:02:33;6.80;99.90
17333;DHT22;8784;50.94667800;7.08448400;2024-02-26T05:05:04;6.80;99.90
17333;DHT22;8784;50.94667800;7.08448400;2024-02-26T05:07:31;6.80;99.90
17333;DHT22;8784;50.94667800;7.08448400;2024-02-26T05:09:57;6.80;99.90
17333;DHT22;8784;50.94667800;7.08448400;2024-02-26T05:12:26;6.80;99.90
17333;DHT22;8784;50.94667800;7.08448400;2024-02-26T05:14:53;6.80;99.90
17333;DHT22;8784;50.94667800;7.08448400;2024-02-26T05:17:20;6.70;99.90
17333;DHT22;8784;50.94667800;7.08448400;2024-02-26T05:19:49;6.80;99.90
17333;DHT22;8784;50.94667800;7.08448400;2024-02-26T05:22:15;6.80;99.90
17333;DHT22;8784;50.94667800;7.08448400;2024-02-26T05:24:43;6.80;99.90
17333;DHT22;8784;50.94667800;7.08448400;2024-02-26T05:27:10;6.80;99.90
17333;DHT22;8784;50.94667800;7.08448400;2024-02-26T05:29:39;6.70;99.90
17333;DHT22;8784;50.94667800;7.08448400;2024-02-26T05:32:06;6.70;99.90
17333;DHT22;8784;50.94667800;7.08448400;2024-02-26T05:34:33;6.70;99.90
17333;DHT22;8784;50.94667800;7.08448400;2024-02-26T05:37:00;6.70;99.90
17333;DHT22;8784;50.94667800;7.08448400;2024-02-26T05:39:27;6.70;99.90
17333;DHT22;8784;50.94667800;7.08448400;2024-02-26T05:41:53;6.70;99.90
17333;DHT22;8784;50.94667800;7.08448400;2024-02-26T05:44:22;6.70;99.90
17333;DHT22;8784;50.94667800;7.08448400;2024-02-26T05:46:50;6.60;99.90
17333;DHT22;8784;50.94667800;7.08448400;2024-02-26T05:49:17;6.70;99.90
17333;DHT22;8784;50.94667800;7.08448400;2024-02-26T05:51:44;6.70;99.90
17333;DHT22;8784;50.94667800;7.08448400;2024-02-26T05:54:11;6.70;99.90
17333;DHT22;8784;50.94667800;7.08448400;2024-02-26T05:56:38;6.80;99.90
17333;DHT22;8784;50.94667800;7.08448400;2024-02-26T05:59:05;6.80;99.90
17333;DHT22;8784;50.94667800;7.08448400;2024-02-26T06:01:32;6.80;99.90
17333;DHT22;8784;50.94667800;7.08448400;2024-02-26T06:04:00;6.80;99.90
17333;DHT22;8784;50.94667800;7.08448400;2024-02-26T06:06:27;6.80;99.90
17333;DHT22;8784;50.94667800;7.08448400;2024-02-26T06:08:53;6.80;99.90
17333;DHT22;8784;50.94667800;7.08448400;2024-02-26T06:11:20;6.80;99.90
17333;DHT22;8784;50.94667800;7.08448400;2024-02-26T06:13:48;6.80;99.90
17333;DHT22;8784;50.94667800;7.08448400;2024-02-26T06:16:15;6.90;99.90
17333;DHT22;8784;50.94667800;7.08448400;2024-02-26T06:18:42;6.90;99.90
17333;DHT22;8784;50.94667800;7.08448400;2024-02-26T06:21:11;6.90;99.90
17333;DHT22;8784;50.94667800;7.08448400;2024-02-26T06:23:38;6.80;99.90
17333;DHT22;8784;50.94667800;7.08448400;2024-02-26T06:26:05;6.80;99.90
17333;DHT22;8784;50.94667800;7.08448400;2024-02-26T06:28:32;6.90;99.90
17333;DHT22;8784;50.94667800;7.08448400;2024-02-26T06:31:01;6.90;99.90
17333;DHT22;8784;50.94667800;7.08448400;2024-02-26T06:33:28;6.90;99.90
17333;DHT22;8784;50.94667800;7.08448400;2024-02-26T06:35:55;6.90;99.90
17333;DHT22;8784;50.94667800;7.08448400;2024-02-26T06:38:23;6.90;99.90
17333;DHT22;8784;50.94667800;7.08448400;2024-02-26T06:40:50;6.90;99.90
17333;DHT22;8784;50.94667800;7.08448400;2024-02-26T06:43:17;6.80;99.90
17333;DHT22;8784;50.94667800;7.08448400;2024-02-26T06:45:44;6.80;99.90
17333;DHT22;8784;50.94667800;7.08448400;2024-02-26T06:48:11;6.80;99.90
17333;DHT22;8784;50.94667800;7.08448400;2024-02-26T06:50:38;6.80;99.90
17333;DHT22;8784;50.94667800;7.08448400;2024-02-26T06:53:05;6.80;99.90
17333;DHT22;8784;50.94667800;7.08448400;2024-02-26T06:55:34;6.80;99.90
17333;DHT22;8784;50.94667800;7.08448400;2024-02-26T06:58:03;6.80;99.90
17333;DHT22;8784;50.94667800;7.08448400;2024-02-26T07:00:30;6.70;99.90
17333;DHT22;8784;50.94667800;7.08448400;2024-02-26T07:02:57;6.70;99.90
17333;DHT22;8784;50.94667800;7.08448400;2024-02-26T07:05:23;6.60;99.90
17333;DHT22;8784;50.94667800;7.08448400;2024-02-26T07:07:50;6.60;99.90
17333;DHT22;8784;50.94667800;7.08448400;2024-02-26T07:10:17;6.70;99.90
17333;DHT22;8784;50.94667800;7.08448400;2024-02-26T07:12:46;6.70;99.90
17333;DHT22;8784;50.94667800;7.08448400;2024-02-26T07:15:13;6.70;99.90
17333;DHT22;8784;50.94667800;7.08448400;2024-02-26T07:17:40;6.70;99.90
17333;DHT22;8784;50.94667800;7.08448400;2024-02-26T07:20:12;6.70;99.90
17333;DHT22;8784;50.94667800;7.08448400;2024-02-26T07:22:40;6.70;99.90
17333;DHT22;8784;50.94667800;7.08448400;2024-02-26T07:25:08;6.70;99.90
17333;DHT22;8784;50.94667800;7.08448400;2024-02-26T07:27:38;6.70;99.90
17333;DHT22;8784;50.94667800;7.08448400;2024-02-26T07:30:08;6.70;99.90
17333;DHT22;8784;50.94667800;7.08448400;2024-02-26T07:32:35;6.70;99.90
17333;DHT22;8784;50.94667800;7.08448400;2024-02-26T07:35:02;6.70;99.90
17333;DHT22;8784;50.94667800;7.08448400;2024-02-26T07:37:29;6.60;99.90
17333;DHT22;8784;50.94667800;7.08448400;2024-02-26T07:39:55;6.70;99.90
17333;DHT22;8784;50.94667800;7.08448400;2024-02-26T07:42:22;6.70;99.90
17333;DHT22;8784;50.94667800;7.08448400;2024-02-26T07:44:49;6.60;99.90
17333;DHT22;8784;50.94667800;7.08448400;2024-02-26T07:47:18;6.70;99.90
17333;DHT22;8784;50.94667800;7.08448400;2024-02-26T07:49:44;6.60;99.90
17333;DHT22;8784;50.94667800;7.08448400;2024-02-26T07:52:11;6.60;99.90
17333;DHT22;8784;50.94667800;7.08448400;2024-02-26T07:54:38;6.60;99.90
17333;DHT22;8784;50.94667800;7.08448400;2024-02-26T07:57:05;6.50;99.90
17333;DHT22;8784;50.94667800;7.08448400;2024-02-26T07:59:32;6.50;99.90
17333;DHT22;8784;50.94667800;7.08448400;2024-02-26T08:01:59;6.50;99.90
17333;DHT22;8784;50.94667800;7.08448400;2024-02-26T08:04:30;6.50;99.90
17333;DHT22;8784;50.94667800;7.08448400;2024-02-26T08:06:56;6.50;99.90
17333;DHT22;8784;50.94667800;7.08448400;2024-02-26T08:09:23;6.50;99.90
17333;DHT22;8784;50.94667800;7.08448400;2024-02-26T08:11:52;6.50;99.90
17333;DHT22;8784;50.94667800;7.08448400;2024-02-26T08:14:18;6.50;99.90
17333;DHT22;8784;50.94667800;7.08448400;2024-02-26T08:16:46;6.50;99.90
17333;DHT22;8784;50.94667800;7.08448400;2024-02-26T08:19:13;6.50;99.90
17333;DHT22;8784;50.94667800;7.08448400;2024-02-26T08:21:42;6.60;99.90
17333;DHT22;8784;50.94667800;7.08448400;2024-02-26T08:24:10;6.60;99.90
17333;DHT22;8784;50.94667800;7.08448400;2024-02-26T08:26:37;6.70;99.90
17333;DHT22;8784;50.94667800;7.08448400;2024-02-26T08:29:04;6.70;99.90
17333;DHT22;8784;50.94667800;7.08448400;2024-02-26T08:31:31;6.70;99.90
17333;DHT22;8784;50.94667800;7.08448400;2024-02-26T08:33:58;6.80;99.90
17333;DHT22;8784;50.94667800;7.08448400;2024-02-26T08:36:26;6.80;99.90
17333;DHT22;8784;50.94667800;7.08448400;2024-02-26T08:38:54;6.80;99.90
17333;DHT22;8784;50.94667800;7.08448400;2024-02-26T08:41:21;6.80;99.90
17333;DHT22;8784;50.94667800;7.08448400;2024-02-26T08:43:48;6.80;99.90
17333;DHT22;8784;50.94667800;7.08448400;2024-02-26T08:46:15;6.80;99.90
17333;DHT22;8784;50.94667800;7.08448400;2024-02-26T08:48:42;6.80;99.90
17333;DHT22;8784;50.94667800;7.08448400;2024-02-26T08:51:09;6.80;99.90
17333;DHT22;8784;50.94667800;7.08448400;2024-02-26T08:53:36;6.80;99.90
17333;DHT22;8784;50.94667800;7.08448400;2024-02-26T08:56:06;6.80;99.90
17333;DHT22;8784;50.94667800;7.08448400;2024-02-26T08:58:33;6.80;99.90
17333;DHT22;8784;50.94667800;7.08448400;2024-02-26T09:00:59;6.80;99.90
17333;DHT22;8784;50.94667800;7.08448400;2024-02-26T09:03:26;6.80;99.90
17333;DHT22;8784;50.94667800;7.08448400;2024-02-26T09:05:53;6.70;99.90
17333;DHT22;8784;50.94667800;7.08448400;2024-02-26T09:08:20;6.70;99.90
17333;DHT22;8784;50.94667800;7.08448400;2024-02-26T09:10:48;6.70;99.90
17333;DHT22;8784;50.94667800;7.08448400;2024-02-26T09:13:16;6.60;99.90
17333;DHT22;8784;50.94667800;7.08448400;2024-02-26T09:15:44;7.00;99.90
17333;DHT22;8784;50.94667800;7.08448400;2024-02-26T09:18:11;6.70;99.90
17333;DHT22;8784;50.94667800;7.08448400;2024-02-26T09:20:38;6.70;99.90
17333;DHT22;8784;50.94667800;7.08448400;2024-02-26T09:23:05;6.70;99.90
17333;DHT22;8784;50.94667800;7.08448400;2024-02-26T09:25:32;6.70;99.90
17333;DHT22;8784;50.94667800;7.08448400;2024-02-26T09:28:00;6.60;99.90
17333;DHT22;8784;50.94667800;7.08448400;2024-02-26T09:30:28;6.70;99.90
17333;DHT22;8784;50.94667800;7.08448400;2024-02-26T09:32:55;6.60;99.90
17333;DHT22;8784;50.94667800;7.08448400;2024-02-26T09:35:22;6.60;99.90
17333;DHT22;8784;50.94667800;7.08448400;2024-02-26T09:37:49;6.60;99.90
17333;DHT22;8784;50.94667800;7.08448400;2024-02-26T09:40:16;6.60;99.90
17333;DHT22;8784;50.94667800;7.08448400;2024-02-26T09:42:44;6.60;99.90
17333;DHT22;8784;50.94667800;7.08448400;2024-02-26T09:45:18;6.60;99.90
17333;DHT22;8784;50.94667800;7.08448400;2024-02-26T09:47:48;6.60;99.90
17333;DHT22;8784;50.94667800;7.08448400;2024-02-26T09:50:16;6.60;99.90
17333;DHT22;8784;50.94667800;7.08448400;2024-02-26T09:52:48;6.70;99.90
17333;DHT22;8784;50.94667800;7.08448400;2024-02-26T09:55:16;6.70;99.90
17333;DHT22;8784;50.94667800;7.08448400;2024-02-26T09:57:46;6.70;99.90
17333;DHT22;8784;50.94667800;7.08448400;2024-02-26T10:00:17;6.70;99.90
17333;DHT22;8784;50.94667800;7.08448400;2024-02-26T10:02:47;6.70;99.90
17333;DHT22;8784;50.94667800;7.08448400;2024-02-26T10:05:17;6.80;99.90
17333;DHT22;8784;50.94667800;7.08448400;2024-02-26T10:07:45;6.90;99.90
17333;DHT22;8784;50.94667800;7.08448400;2024-02-26T10:10:13;6.80;99.90
17333;DHT22;8784;50.94667800;7.08448400;2024-02-26T10:12:40;6.90;99.90
17333;DHT22;8784;50.94667800;7.08448400;2024-02-26T10:15:08;6.90;99.90
17333;DHT22;8784;50.94667800;7.08448400;2024-02-26T10:17:35;6.90;99.90
17333;DHT22;8784;50.94667800;7.08448400;2024-02-26T10:20:22;6.90;99.90
17333;DHT22;8784;50.94667800;7.08448400;2024-02-26T10:22:51;7.00;99.90
17333;DHT22;8784;50.94667800;7.08448400;2024-02-26T10:25:19;6.90;99.90
17333;DHT22;8784;50.94667800;7.08448400;2024-02-26T10:27:46;7.00;99.90
17333;DHT22;8784;50.94667800;7.08448400;2024-02-26T10:30:49;7.00;99.90
17333;DHT22;8784;50.94667800;7.08448400;2024-02-26T10:33:17;7.00;99.90
17333;DHT22;8784;50.94667800;7.08448400;2024-02-26T10:35:47;7.10;99.90
17333;DHT22;8784;50.94667800;7.08448400;2024-02-26T10:38:14;7.10;99.90
17333;DHT22;8784;50.94667800;7.08448400;2024-02-26T10:40:45;7.10;99.90
17333;DHT22;8784;50.94667800;7.08448400;2024-02-26T10:43:12;7.10;99.90
17333;DHT22;8784;50.94667800;7.08448400;2024-02-26T10:45:41;7.20;99.90
17333;DHT22;8784;50.94667800;7.08448400;2024-02-26T10:48:10;7.30;99.90
17333;DHT22;8784;50.94667800;7.08448400;2024-02-26T10:50:38;7.40;99.90
17333;DHT22;8784;50.94667800;7.08448400;2024-02-26T10:53:12;7.50;99.90
17333;DHT22;8784;50.94667800;7.08448400;2024-02-26T10:55:41;7.50;99.90
17333;DHT22;8784;50.94667800;7.08448400;2024-02-26T10:58:09;7.50;99.90
17333;DHT22;8784;50.94667800;7.08448400;2024-02-26T11:00:38;7.60;99.90
17333;DHT22;8784;50.94667800;7.08448400;2024-02-26T11:03:06;7.60;99.90
17333;DHT22;8784;50.94667800;7.08448400;2024-02-26T11:05:35;7.60;99.90
17333;DHT22;8784;50.94667800;7.08448400;2024-02-26T11:08:04;7.60;99.90
17333;DHT22;8784;50.94667800;7.08448400;2024-02-26T11:10:33;7.60;99.90
17333;DHT22;8784;50.94667800;7.08448400;2024-02-26T11:13:01;7.60;99.90
17333;DHT22;8784;50.94667800;7.08448400;2024-02-26T11:15:30;7.60;99.90
17333;DHT22;8784;50.94667800;7.08448400;2024-02-26T11:17:59;7.60;99.90
17333;DHT22;8784;50.94667800;7.08448400;2024-02-26T11:20:28;7.70;99.90
17333;DHT22;8784;50.94667800;7.08448400;2024-02-26T11:22:56;7.70;99.90
17333;DHT22;8784;50.94667800;7.08448400;2024-02-26T11:25:23;7.60;99.90
17333;DHT22;8784;50.94667800;7.08448400;2024-02-26T11:27:54;7.70;99.90
17333;DHT22;8784;50.94667800;7.08448400;2024-02-26T11:30:24;7.70;99.90
17333;DHT22;8784;50.94667800;7.08448400;2024-02-26T11:32:52;7.70;99.90
17333;DHT22;8784;50.94667800;7.08448400;2024-02-26T11:35:20;7.70;99.90
17333;DHT22;8784;50.94667800;7.08448400;2024-02-26T11:37:54;7.70;99.90
17333;DHT22;8784;50.94667800;7.08448400;2024-02-26T11:40:23;7.70;99.90
17333;DHT22;8784;50.94667800;7.08448400;2024-02-26T11:42:51;7.70;99.90
17333;DHT22;8784;50.94667800;7.08448400;2024-02-26T11:45:47;7.70;99.90
17333;DHT22;8784;50.94667800;7.08448400;2024-02-26T11:48:16;7.70;99.90
17333;DHT22;8784;50.94667800;7.08448400;2024-02-26T11:50:48;7.80;99.90
17333;DHT22;8784;50.94667800;7.08448400;2024-02-26T11:53:23;7.80;99.90
17333;DHT22;8784;50.94667800;7.08448400;2024-02-26T11:56:22;7.90;99.90
17333;DHT22;8784;50.94667800;7.08448400;2024-02-26T11:58:57;7.90;99.90
17333;DHT22;8784;50.94667800;7.08448400;2024-02-26T12:01:44;7.90;99.90
17333;DHT22;8784;50.94667800;7.08448400;2024-02-26T12:04:15;7.90;99.90
17333;DHT22;8784;50.94667800;7.08448400;2024-02-26T12:06:45;8.10;99.90
17333;DHT22;8784;50.94667800;7.08448400;2024-02-26T12:09:13;8.10;99.90
17333;DHT22;8784;50.94667800;7.08448400;2024-02-26T12:11:41;8.30;99.90
17333;DHT22;8784;50.94667800;7.08448400;2024-02-26T12:14:10;8.30;99.90
17333;DHT22;8784;50.94667800;7.08448400;2024-02-26T12:16:38;8.50;99.90
17333;DHT22;8784;50.94667800;7.08448400;2024-02-26T12:19:06;8.60;99.90
17333;DHT22;8784;50.94667800;7.08448400;2024-02-26T12:21:34;8.60;99.90
17333;DHT22;8784;50.94667800;7.08448400;2024-02-26T12:24:12;8.70;99.90
17333;DHT22;8784;50.94667800;7.08448400;2024-02-26T12:26:40;8.70;99.90
17333;DHT22;8784;50.94667800;7.08448400;2024-02-26T12:29:07;8.70;99.90
17333;DHT22;8784;50.94667800;7.08448400;2024-02-26T12:31:36;8.70;99.90
17333;DHT22;8784;50.94667800;7.08448400;2024-02-26T12:34:04;8.80;99.90
17333;DHT22;8784;50.94667800;7.08448400;2024-02-26T12:36:32;8.80;99.90
17333;DHT22;8784;50.94667800;7.08448400;2024-02-26T12:39:00;8.80;99.90
17333;DHT22;8784;50.94667800;7.08448400;2024-02-26T12:41:27;8.90;99.90
17333;DHT22;8784;50.94667800;7.08448400;2024-02-26T12:43:55;8.80;99.90
17333;DHT22;8784;50.94667800;7.08448400;2024-02-26T12:46:23;8.80;99.90
17333;DHT22;8784;50.94667800;7.08448400;2024-02-26T12:48:51;8.80;99.90
17333;DHT22;8784;50.94667800;7.08448400;2024-02-26T12:51:19;8.80;99.90
17333;DHT22;8784;50.94667800;7.08448400;2024-02-26T12:53:47;8.80;99.90
17333;DHT22;8784;50.94667800;7.08448400;2024-02-26T12:56:16;8.80;99.90
17333;DHT22;8784;50.94667800;7.08448400;2024-02-26T12:58:44;8.90;99.90
17333;DHT22;8784;50.94667800;7.08448400;2024-02-26T13:01:15;8.90;99.90
17333;DHT22;8784;50.94667800;7.08448400;2024-02-26T13:03:44;9.00;99.90
17333;DHT22;8784;50.94667800;7.08448400;2024-02-26T13:06:13;9.10;99.90
17333;DHT22;8784;50.94667800;7.08448400;2024-02-26T13:08:40;9.30;99.90
17333;DHT22;8784;50.94667800;7.08448400;2024-02-26T13:11:08;9.40;99.90
17333;DHT22;8784;50.94667800;7.08448400;2024-02-26T13:13:35;9.60;99.90
17333;DHT22;8784;50.94667800;7.08448400;2024-02-26T13:16:03;9.60;99.90
17333;DHT22;8784;50.94667800;7.08448400;2024-02-26T13:18:32;9.70;99.90
17333;DHT22;8784;50.94667800;7.08448400;2024-02-26T13:21:09;9.80;99.90
17333;DHT22;8784;50.94667800;7.08448400;2024-02-26T13:23:39;9.80;99.90
17333;DHT22;8784;50.94667800;7.08448400;2024-02-26T13:26:06;9.80;99.90
17333;DHT22;8784;50.94667800;7.08448400;2024-02-26T13:28:34;9.80;99.90
17333;DHT22;8784;50.94667800;7.08448400;2024-02-26T13:31:01;9.70;99.90
17333;DHT22;8784;50.94667800;7.08448400;2024-02-26T13:33:30;9.50;99.90
17333;DHT22;8784;50.94667800;7.08448400;2024-02-26T13:35:58;9.50;99.90
17333;DHT22;8784;50.94667800;7.08448400;2024-02-26T13:38:26;9.50;99.90
17333;DHT22;8784;50.94667800;7.08448400;2024-02-26T13:40:55;9.30;99.90
17333;DHT22;8784;50.94667800;7.08448400;2024-02-26T13:43:22;9.30;99.90
17333;DHT22;8784;50.94667800;7.08448400;2024-02-26T13:45:49;9.20;99.90
17333;DHT22;8784;50.94667800;7.08448400;2024-02-26T13:48:16;9.20;99.90
17333;DHT22;8784;50.94667800;7.08448400;2024-02-26T13:50:43;9.20;99.90